TimePST,TemperatureF,Dew PointF,Humidity,Sea Level PressureIn,VisibilityMPH,Wind Direction,Wind SpeedMPH,Gust SpeedMPH,PrecipitationIn,Events,Conditions,WindDirDegrees,DateUTC
12:56 AM,48.9,15.1,26,30.10,10.0,North,19.6,26.5,N/A,,Clear,360,2013-01-03 08:56:00
1:56 AM,48.0,15.1,27,30.13,10.0,North,19.6,27.6,N/A,,Clear,360,2013-01-03 09:56:00
2:56 AM,46.9,15.1,28,30.13,10.0,North,21.9,27.6,N/A,,Clear,10,2013-01-03 10:56:00
3:56 AM,46.0,15.1,29,30.14,10.0,North,18.4,-,N/A,,Clear,360,2013-01-03 11:56:00
5:56 AM,44.1,14.0,30,30.17,10.0,North,21.9,-,N/A,,Clear,10,2013-01-03 13:56:00
6:56 AM,44.1,12.9,28,30.19,10.0,North,23.0,28.8,N/A,,Clear,10,2013-01-03 14:56:00
7:56 AM,46.0,15.1,29,30.22,10.0,North,21.9,32.2,N/A,,Clear,10,2013-01-03 15:56:00
8:56 AM,48.9,14.0,25,30.23,10.0,North,23.0,33.4,N/A,,Clear,10,2013-01-03 16:56:00
9:56 AM,52.0,12.9,21,30.24,10.0,North,20.7,32.2,N/A,,Clear,10,2013-01-03 17:56:00
10:56 AM,55.0,10.9,17,30.22,10.0,NNE,26.5,-,N/A,,Clear,20,2013-01-03 18:56:00
11:56 AM,55.9,10.0,16,30.19,10.0,North,20.7,31.1,N/A,,Clear,10,2013-01-03 19:56:00
12:56 PM,57.9,9.0,14,30.17,10.0,NNE,24.2,-,N/A,,Clear,20,2013-01-03 20:56:00
1:56 PM,59.0,7.0,13,30.16,10.0,North,20.7,27.6,N/A,,Clear,10,2013-01-03 21:56:00
2:56 PM,59.0,7.0,13,30.17,10.0,NNE,20.7,25.3,N/A,,Clear,20,2013-01-03 22:56:00
3:56 PM,57.0,6.1,13,30.17,10.0,NNE,20.7,-,N/A,,Clear,20,2013-01-03 23:56:00
4:56 PM,54.0,7.0,15,30.18,10.0,North,15.0,-,N/A,,Clear,10,2013-01-04 00:56:00
5:56 PM,52.0,8.1,17,30.20,10.0,North,12.7,-,N/A,,Clear,350,2013-01-04 01:56:00
6:56 PM,51.1,10.0,19,30.20,10.0,North,15.0,-,N/A,,Clear,360,2013-01-04 02:56:00
7:56 PM,51.1,9.0,18,30.20,10.0,North,13.8,-,N/A,,Clear,10,2013-01-04 03:56:00
8:56 PM,48.9,7.0,18,30.21,10.0,North,9.2,-,N/A,,Clear,360,2013-01-04 04:56:00
9:56 PM,48.0,8.1,20,30.22,10.0,North,9.2,-,N/A,,Clear,350,2013-01-04 05:56:00
10:56 PM,46.0,9.0,22,30.23,10.0,NW,5.8,-,N/A,,Clear,320,2013-01-04 06:56:00
11:56 PM,46.9,8.1,21,30.22,10.0,NW,8.1,-,N/A,,Clear,320,2013-01-04 07:56:00